Time;durP1;ratioP1;P1;durP2;ratioP2;P2;SDS_P1;SDS_P2;PMS_P1;PMS_P2;Temp;Humidity;BMP_temperature;BMP_pressure;BME280_temperature;BME280_humidity;BME280_pressure;Samples;Min_cycle;Max_cycle;Signal;HPM_P1;HPM_P2
2021/06/29 00:01:10;;;;;;;;;31.75;31.75;;;;;;;;8629231;41;11058;-62
2021/06/29 00:07:12;;;;;;;;;31.75;29.50;;;;;;;;8629854;41;11237;-62
2021/06/29 00:13:14;;;;;;;;;31.50;28.00;;;;;;;;8630365;41;10985;-61
2021/06/29 00:19:18;;;;;;;;;32.00;29.50;;;;;;;;8628399;41;11142;-61
2021/06/29 00:25:20;;;;;;;;;35.75;31.25;;;;;;;;8628747;41;10952;-61
2021/06/29 00:31:22;;;;;;;;;30.75;29.50;;;;;;;;8628458;41;11116;-61
2021/06/29 00:37:24;;;;;;;;;39.00;35.75;;;;;;;;8608491;41;10979;-61
2021/06/29 00:43:26;;;;;;;;;36.50;34.00;;;;;;;;8608830;41;11377;-61
2021/06/29 00:49:28;;;;;;;;;38.67;36.00;;;;;;;;8617987;41;10481;-61
2021/06/29 00:55:31;;;;;;;;;38.67;37.67;;;;;;;;8632169;41;10366;-60
2021/06/29 01:01:33;;;;;;;;;39.00;35.25;;;;;;;;8632868;41;11653;-61
2021/06/29 01:07:35;;;;;;;;;40.00;36.00;;;;;;;;8622088;41;11670;-61
2021/06/29 01:13:43;;;;;;;;;43.50;36.25;;;;;;;;8614769;41;11169;-60
2021/06/29 01:19:46;;;;;;;;;39.67;36.67;;;;;;;;8608010;41;10968;-60
2021/06/29 01:26:28;;;;;;;;;37.00;36.00;;;;;;;;8608130;41;11240;-61
2021/06/29 01:32:30;;;;;;;;;39.00;34.75;;;;;;;;8616414;41;11149;-61
2021/06/29 01:38:31;;;;;;;;;37.25;35.25;;;;;;;;8616861;41;11108;-62
2021/06/29 01:44:35;;;;;;;;;47.00;39.33;;;;;;;;8607731;41;10434;-60
2021/06/29 01:50:37;;;;;;;;;39.33;35.33;;;;;;;;8621920;41;10577;-61
2021/06/29 01:56:40;;;;;;;;;39.00;35.33;;;;;;;;8630348;41;10949;-61
2021/06/29 02:02:42;;;;;;;;;37.67;36.00;;;;;;;;8613891;41;10931;-61
2021/06/29 02:08:45;;;;;;;;;38.00;36.67;;;;;;;;8631070;41;10987;-61
2021/06/29 02:14:47;;;;;;;;;40.50;36.50;;;;;;;;8630840;41;11912;-62
2021/06/29 02:20:49;;;;;;;;;36.67;34.33;;;;;;;;8630488;41;11227;-61
2021/06/29 02:26:51;;;;;;;;;38.25;34.25;;;;;;;;8630250;41;11087;-61
2021/06/29 02:32:53;;;;;;;;;37.33;34.67;;;;;;;;8621225;41;10277;-60
2021/06/29 02:38:55;;;;;;;;;36.33;34.00;;;;;;;;8630120;41;10952;-61
2021/06/29 02:45:04;;;;;;;;;45.67;37.67;;;;;;;;8631220;41;11019;-62
2021/06/29 02:51:06;;;;;;;;;38.67;35.00;;;;;;;;8629249;41;10797;-60
2021/06/29 02:57:08;;;;;;;;;38.67;37.33;;;;;;;;8612910;41;10365;-61
2021/06/29 03:03:10;;;;;;;;;33.00;30.33;;;;;;;;8617733;41;10661;-61
2021/06/29 03:09:12;;;;;;;;;44.00;40.00;;;;;;;;8614872;41;10621;-60
2021/06/29 03:15:14;;;;;;;;;36.00;32.33;;;;;;;;8606554;41;10803;-61
2021/06/29 03:21:17;;;;;;;;;39.67;34.67;;;;;;;;8606053;41;10730;-61
2021/06/29 03:27:19;;;;;;;;;42.33;38.67;;;;;;;;8607735;41;10569;-61
2021/06/29 03:33:21;;;;;;;;;41.33;38.33;;;;;;;;8606619;41;11415;-63
2021/06/29 03:39:23;;;;;;;;;31.75;31.75;;;;;;;;8606984;41;11028;-62
2021/06/29 03:45:26;;;;;;;;;41.25;34.00;;;;;;;;8608061;41;11214;-62
2021/06/29 03:51:28;;;;;;;;;37.33;33.67;;;;;;;;8605592;41;11105;-61
2021/06/29 03:57:30;;;;;;;;;35.00;34.33;;;;;;;;8613171;41;11002;-61
2021/06/29 04:03:31;;;;;;;;;36.75;34.00;;;;;;;;9564739;24;11292;-63
2021/06/29 04:09:34;;;;;;;;;33.00;31.50;;;;;;;;8616134;41;11300;-63
2021/06/29 04:15:36;;;;;;;;;37.67;32.00;;;;;;;;8626405;41;10775;-63
2021/06/29 04:21:38;;;;;;;;;39.25;36.75;;;;;;;;8626400;41;11232;-64
2021/06/29 04:27:40;;;;;;;;;35.00;35.00;;;;;;;;8602716;41;11060;-64
2021/06/29 04:33:42;;;;;;;;;35.25;32.25;;;;;;;;8586499;41;11189;-64
2021/06/29 04:39:44;;;;;;;;;42.50;37.00;;;;;;;;8617753;41;10991;-63
2021/06/29 04:45:46;;;;;;;;;46.33;41.33;;;;;;;;8595105;41;10809;-63
2021/06/29 04:51:48;;;;;;;;;36.75;34.25;;;;;;;;8585784;41;11130;-64
2021/06/29 04:57:50;;;;;;;;;30.75;28.75;;;;;;;;8584690;41;11444;-63
2021/06/29 05:03:51;;;;;;;;;41.00;35.00;;;;;;;;8586363;41;11209;-64
2021/06/29 05:09:53;;;;;;;;;16.00;14.00;;;;;;;;8608632;41;10168;-64
2021/06/29 05:15:55;;;;;;;;;40.00;36.00;;;;;;;;8611430;41;11091;-63
2021/06/29 05:21:57;;;;;;;;;31.00;27.00;;;;;;;;8608365;41;11122;-64
2021/06/29 05:27:59;;;;;;;;;35.25;34.00;;;;;;;;8608621;41;10923;-62
2021/06/29 05:34:01;;;;;;;;;36.00;34.00;;;;;;;;8606372;41;11002;-62
2021/06/29 05:40:04;;;;;;;;;45.75;39.75;;;;;;;;8605647;41;11146;-63
2021/06/29 05:46:06;;;;;;;;;43.00;39.00;;;;;;;;8608583;41;10757;-63
2021/06/29 05:52:08;;;;;;;;;38.50;35.50;;;;;;;;8602208;41;11040;-62
2021/06/29 05:58:10;;;;;;;;;32.75;31.25;;;;;;;;8598905;41;10829;-63
2021/06/29 06:04:12;;;;;;;;;39.50;37.25;;;;;;;;8601778;41;10913;-63
2021/06/29 06:10:14;;;;;;;;;42.75;39.25;;;;;;;;8606000;41;10902;-62
2021/06/29 06:16:16;;;;;;;;;39.50;37.50;;;;;;;;8606852;41;11344;-64
2021/06/29 06:22:18;;;;;;;;;40.00;37.50;;;;;;;;8604416;41;10956;-62
2021/06/29 06:28:21;;;;;;;;;37.25;33.50;;;;;;;;8600363;41;11009;-63
2021/06/29 06:34:23;;;;;;;;;38.00;33.00;;;;;;;;8603801;41;11603;-63
2021/06/29 06:40:25;;;;;;;;;32.50;32.50;;;;;;;;8601278;41;10714;-64
2021/06/29 06:46:27;;;;;;;;;32.00;30.25;;;;;;;;8604629;41;10926;-62
2021/06/29 06:52:29;;;;;;;;;28.00;28.00;;;;;;;;8602004;41;10901;-62
2021/06/29 06:58:31;;;;;;;;;27.75;26.00;;;;;;;;8605127;41;11511;-63
2021/06/29 07:04:33;;;;;;;;;30.50;30.25;;;;;;;;8606796;41;10762;-61
2021/06/29 07:10:35;;;;;;;;;33.50;30.00;;;;;;;;8608871;41;11581;-65
2021/06/29 07:16:38;;;;;;;;;26.50;26.50;;;;;;;;8605122;41;10664;-62
2021/06/29 07:22:41;;;;;;;;;26.25;26.25;;;;;;;;8607919;41;10732;-65
2021/06/29 07:28:43;;;;;;;;;33.25;30.25;;;;;;;;8603751;41;10915;-64
2021/06/29 07:34:46;;;;;;;;;29.75;27.75;;;;;;;;8600088;41;10716;-65
2021/06/29 07:40:47;;;;;;;;;27.25;27.25;;;;;;;;8602358;41;10789;-65
2021/06/29 07:46:51;;;;;;;;;27.00;26.25;;;;;;;;8603863;41;10637;-66
2021/06/29 07:52:54;;;;;;;;;32.00;31.50;;;;;;;;8603369;41;11046;-64
2021/06/29 07:58:56;;;;;;;;;33.00;28.75;;;;;;;;8605343;41;11034;-68
2021/06/29 08:05:00;;;;;;;;;28.25;26.50;;;;;;;;8604515;41;10743;-66
2021/06/29 08:11:07;;;;;;;;;25.75;24.25;;;;;;;;8597765;41;10710;-64
2021/06/29 08:17:09;;;;;;;;;25.50;24.75;;;;;;;;8602602;41;11344;-65
2021/06/29 08:23:12;;;;;;;;;27.75;24.75;;;;;;;;8604285;41;10969;-65
2021/06/29 08:29:14;;;;;;;;;25.50;23.00;;;;;;;;8595302;41;10746;-64
2021/06/29 08:35:16;;;;;;;;;25.00;25.00;;;;;;;;8606139;41;10977;-64
2021/06/29 08:41:19;;;;;;;;;31.00;29.50;;;;;;;;8591218;41;10769;-66
2021/06/29 08:47:21;;;;;;;;;20.00;18.00;;;;;;;;8597934;41;10937;-64
2021/06/29 08:53:24;;;;;;;;;28.75;28.75;;;;;;;;8604178;41;10974;-67
2021/06/29 08:59:26;;;;;;;;;28.00;25.50;;;;;;;;8604250;41;10983;-63
2021/06/29 09:05:30;;;;;;;;;24.00;21.75;;;;;;;;8608951;41;10923;-67
2021/06/29 09:11:36;;;;;;;;;22.00;19.50;;;;;;;;8602900;41;11249;-63
2021/06/29 09:17:38;;;;;;;;;32.50;30.00;;;;;;;;8603322;41;10614;-65
2021/06/29 09:23:42;;;;;;;;;30.25;26.00;;;;;;;;8604505;41;11669;-65
2021/06/29 09:29:44;;;;;;;;;35.50;31.00;;;;;;;;8605397;41;11001;-64
2021/06/29 09:35:53;;;;;;;;;36.00;33.75;;;;;;;;8606543;41;10772;-62
2021/06/29 09:42:02;;;;;;;;;30.25;28.00;;;;;;;;8609387;41;10816;-64
2021/06/29 09:48:08;;;;;;;;;32.00;30.75;;;;;;;;8608773;41;10772;-64
2021/06/29 09:54:13;;;;;;;;;31.00;29.00;;;;;;;;8596797;41;11132;-68
2021/06/29 10:00:16;;;;;;;;;26.00;23.00;;;;;;;;8605022;41;10867;-65
2021/06/29 10:06:24;;;;;;;;;21.25;21.25;;;;;;;;8602667;41;10875;-63
2021/06/29 10:12:26;;;;;;;;;29.00;26.25;;;;;;;;8599113;41;11005;-62
2021/06/29 10:18:31;;;;;;;;;26.75;26.75;;;;;;;;8605566;41;10742;-66
2021/06/29 10:24:36;;;;;;;;;28.75;27.75;;;;;;;;8593606;41;10912;-66
2021/06/29 10:30:38;;;;;;;;;23.75;22.00;;;;;;;;8596612;41;11399;-65
2021/06/29 10:36:45;;;;;;;;;20.00;20.00;;;;;;;;8601119;41;11521;-66
2021/06/29 10:42:47;;;;;;;;;18.50;18.50;;;;;;;;8602140;41;10748;-64
2021/06/29 10:48:49;;;;;;;;;21.50;20.50;;;;;;;;8606648;41;10913;-63
2021/06/29 10:54:52;;;;;;;;;33.00;30.00;;;;;;;;8602302;41;10766;-66
2021/06/29 11:00:54;;;;;;;;;27.00;26.75;;;;;;;;8607399;41;10723;-63
2021/06/29 11:06:56;;;;;;;;;23.75;22.25;;;;;;;;8605579;41;10751;-64
2021/06/29 11:13:00;;;;;;;;;23.75;23.75;;;;;;;;8599622;41;10711;-65
2021/06/29 11:19:03;;;;;;;;;23.00;22.25;;;;;;;;8608427;41;10626;-64
2021/06/29 11:25:05;;;;;;;;;19.00;18.50;;;;;;;;8611236;41;10665;-67
2021/06/29 11:31:11;;;;;;;;;20.50;19.75;;;;;;;;8606676;41;11472;-66
2021/06/29 11:37:13;;;;;;;;;19.00;19.00;;;;;;;;8599915;41;10684;-64
2021/06/29 11:43:16;;;;;;;;;21.00;20.50;;;;;;;;8605871;41;10649;-66
2021/06/29 11:49:31;;;;;;;;;24.25;23.50;;;;;;;;8606413;41;10803;-65
2021/06/29 11:55:34;;;;;;;;;21.25;21.25;;;;;;;;8607229;41;10714;-66
2021/06/29 12:01:36;;;;;;;;;24.50;21.25;;;;;;;;8605800;41;10699;-65
2021/06/29 12:07:41;;;;;;;;;20.75;18.50;;;;;;;;8606138;41;10769;-66
2021/06/29 12:13:43;;;;;;;;;22.75;21.75;;;;;;;;8604507;41;10756;-67
2021/06/29 12:19:46;;;;;;;;;23.25;22.50;;;;;;;;8594691;41;10688;-65
2021/06/29 12:25:51;;;;;;;;;22.00;22.00;;;;;;;;8600930;41;11311;-67
2021/06/29 12:31:53;;;;;;;;;20.25;20.00;;;;;;;;8616678;41;10733;-67
2021/06/29 12:38:02;;;;;;;;;21.75;21.25;;;;;;;;8611150;41;11318;-63
2021/06/29 12:44:07;;;;;;;;;23.25;23.00;;;;;;;;8602756;41;10775;-65
2021/06/29 12:50:09;;;;;;;;;17.75;17.75;;;;;;;;8608206;41;11533;-64
2021/06/29 12:56:18;;;;;;;;;19.00;17.00;;;;;;;;8599068;41;10740;-64
2021/06/29 13:02:23;;;;;;;;;21.00;19.00;;;;;;;;8610353;41;11427;-64
2021/06/29 13:08:25;;;;;;;;;19.25;19.25;;;;;;;;8605426;41;10665;-65
2021/06/29 13:14:29;;;;;;;;;25.25;24.00;;;;;;;;8612317;41;10800;-65
2021/06/29 13:20:33;;;;;;;;;20.00;19.00;;;;;;;;8605509;41;10801;-63
2021/06/29 13:26:55;;;;;;;;;17.75;15.75;;;;;;;;8608868;41;10924;-67
2021/06/29 13:32:59;;;;;;;;;17.50;17.50;;;;;;;;8598183;41;10638;-65
2021/06/29 13:39:01;;;;;;;;;16.00;16.00;;;;;;;;8605740;41;10778;-64
2021/06/29 13:45:06;;;;;;;;;14.25;12.75;;;;;;;;8610179;41;10720;-64
2021/06/29 13:51:22;;;;;;;;;18.50;18.50;;;;;;;;8604931;41;10745;-64
2021/06/29 13:57:24;;;;;;;;;16.75;16.25;;;;;;;;8590662;41;10751;-67
2021/06/29 14:03:37;;;;;;;;;17.50;17.00;;;;;;;;8590918;41;10727;-63
2021/06/29 14:09:40;;;;;;;;;14.00;12.75;;;;;;;;8589057;41;12059;-66
2021/06/29 14:15:42;;;;;;;;;14.00;14.00;;;;;;;;8607758;41;10754;-67
2021/06/29 14:21:44;;;;;;;;;17.00;16.00;;;;;;;;8611078;41;11166;-66
2021/06/29 14:27:50;;;;;;;;;16.50;15.75;;;;;;;;8610585;41;10924;-68
2021/06/29 14:33:52;;;;;;;;;17.25;17.25;;;;;;;;8611049;41;10690;-67
2021/06/29 14:39:54;;;;;;;;;22.50;20.00;;;;;;;;8610483;41;10782;-65
2021/06/29 14:45:56;;;;;;;;;18.25;17.00;;;;;;;;8599001;41;10680;-68
2021/06/29 14:51:58;;;;;;;;;20.75;18.75;;;;;;;;8590515;41;11277;-66
2021/06/29 14:58:00;;;;;;;;;16.50;16.50;;;;;;;;8611633;41;10705;-65
2021/06/29 15:04:02;;;;;;;;;19.75;19.75;;;;;;;;8610362;41;10771;-65
2021/06/29 15:10:05;;;;;;;;;17.00;16.00;;;;;;;;8585096;41;10916;-66
2021/06/29 15:16:08;;;;;;;;;26.00;24.00;;;;;;;;8585977;41;10716;-66
2021/06/29 15:22:10;;;;;;;;;24.00;19.50;;;;;;;;8592257;41;10756;-67
2021/06/29 15:28:12;;;;;;;;;21.50;19.00;;;;;;;;8584741;41;10789;-68
2021/06/29 15:34:14;;;;;;;;;21.00;21.00;;;;;;;;8603207;41;10839;-68
2021/06/29 15:40:21;;;;;;;;;18.00;18.00;;;;;;;;8606606;41;10673;-64
2021/06/29 15:46:23;;;;;;;;;16.50;15.25;;;;;;;;8606319;41;10652;-66
2021/06/29 15:52:25;;;;;;;;;19.75;19.75;;;;;;;;8606530;41;10743;-66
2021/06/29 15:58:28;;;;;;;;;18.75;17.75;;;;;;;;8608284;41;10860;-65
2021/06/29 16:04:30;;;;;;;;;17.00;17.00;;;;;;;;8593483;41;12012;-63
2021/06/29 16:10:32;;;;;;;;;21.25;18.00;;;;;;;;8588752;41;10646;-65
2021/06/29 16:16:35;;;;;;;;;22.50;20.50;;;;;;;;8607107;41;10757;-66
2021/06/29 16:22:38;;;;;;;;;20.00;19.50;;;;;;;;8608252;41;10941;-65
2021/06/29 16:28:40;;;;;;;;;15.75;15.75;;;;;;;;8607229;41;10693;-66
2021/06/29 16:34:43;;;;;;;;;25.25;23.00;;;;;;;;8607456;41;10757;-65
2021/06/29 16:40:44;;;;;;;;;18.50;18.25;;;;;;;;8606347;41;10769;-66
2021/06/29 16:46:46;;;;;;;;;19.50;19.00;;;;;;;;8606412;41;10610;-64
2021/06/29 16:52:48;;;;;;;;;36.50;34.50;;;;;;;;8605682;41;10727;-66
2021/06/29 16:58:52;;;;;;;;;30.75;30.00;;;;;;;;8605560;41;10751;-65
2021/06/29 17:04:54;;;;;;;;;26.75;23.25;;;;;;;;8606826;41;11321;-65
2021/06/29 17:10:56;;;;;;;;;27.25;22.75;;;;;;;;8606455;41;11272;-65
2021/06/29 17:16:58;;;;;;;;;27.00;27.00;;;;;;;;8609728;41;10676;-65
2021/06/29 17:23:00;;;;;;;;;23.00;20.75;;;;;;;;8609542;41;11100;-66
2021/06/29 17:29:02;;;;;;;;;21.00;21.00;;;;;;;;8609361;41;10681;-65
2021/06/29 17:35:06;;;;;;;;;21.25;21.00;;;;;;;;8609573;41;10920;-64
2021/06/29 17:41:08;;;;;;;;;24.25;23.75;;;;;;;;8608776;41;10746;-65
2021/06/29 17:47:10;;;;;;;;;20.00;19.50;;;;;;;;8588117;41;11666;-65
2021/06/29 17:53:12;;;;;;;;;28.00;25.75;;;;;;;;8605554;41;10957;-65
2021/06/29 17:59:15;;;;;;;;;23.25;21.50;;;;;;;;8601834;41;10816;-66
2021/06/29 18:05:19;;;;;;;;;23.25;23.00;;;;;;;;8585572;41;10730;-64
2021/06/29 18:11:22;;;;;;;;;24.00;22.50;;;;;;;;8585091;41;10715;-64
2021/06/29 18:17:25;;;;;;;;;24.75;22.75;;;;;;;;8586624;41;10799;-64
2021/06/29 18:23:26;;;;;;;;;20.75;20.75;;;;;;;;8603745;41;10918;-65
2021/06/29 18:29:29;;;;;;;;;30.50;27.00;;;;;;;;8608661;41;10927;-66
2021/06/29 18:35:31;;;;;;;;;28.50;27.00;;;;;;;;8606116;41;10710;-63
2021/06/29 18:41:33;;;;;;;;;28.50;25.50;;;;;;;;8606179;41;10773;-65
2021/06/29 18:47:35;;;;;;;;;21.75;20.75;;;;;;;;8608063;41;11237;-65
2021/06/29 18:53:37;;;;;;;;;29.50;26.25;;;;;;;;8607274;41;10860;-65
2021/06/29 18:59:39;;;;;;;;;31.50;28.25;;;;;;;;8605686;41;10724;-65
2021/06/29 19:05:41;;;;;;;;;32.25;31.25;;;;;;;;8591684;41;11526;-65
2021/06/29 19:11:43;;;;;;;;;33.00;30.25;;;;;;;;8583086;41;10957;-66
2021/06/29 19:17:45;;;;;;;;;28.75;28.00;;;;;;;;8591680;41;10982;-64
2021/06/29 19:23:48;;;;;;;;;25.75;25.50;;;;;;;;8604210;41;10884;-64
2021/06/29 19:29:50;;;;;;;;;31.25;30.75;;;;;;;;8583299;41;10876;-64
2021/06/29 19:35:53;;;;;;;;;25.00;25.00;;;;;;;;8582920;41;10878;-64
2021/06/29 19:41:55;;;;;;;;;29.25;25.50;;;;;;;;8604475;41;10810;-63
2021/06/29 19:47:57;;;;;;;;;35.00;31.75;;;;;;;;8595685;41;10714;-66
2021/06/29 19:53:59;;;;;;;;;37.25;35.25;;;;;;;;8582458;41;10727;-64
2021/06/29 20:00:01;;;;;;;;;33.00;28.00;;;;;;;;8592689;41;11273;-65
2021/06/29 20:06:12;;;;;;;;;28.25;26.00;;;;;;;;8588541;41;11362;-64
2021/06/29 20:12:14;;;;;;;;;32.00;30.25;;;;;;;;8588530;41;10951;-65
2021/06/29 20:18:16;;;;;;;;;34.50;31.50;;;;;;;;8583443;41;10795;-64
2021/06/29 20:24:18;;;;;;;;;33.75;31.25;;;;;;;;8602738;41;10696;-64
2021/06/29 20:30:20;;;;;;;;;29.00;29.00;;;;;;;;8605478;41;10939;-64
2021/06/29 20:36:22;;;;;;;;;30.75;26.25;;;;;;;;8604439;41;10742;-64
2021/06/29 20:42:25;;;;;;;;;29.75;28.00;;;;;;;;8604961;41;11350;-65
2021/06/29 20:48:26;;;;;;;;;36.75;30.00;;;;;;;;8599232;41;10779;-64
2021/06/29 20:54:28;;;;;;;;;30.75;28.25;;;;;;;;8607548;41;10778;-63
2021/06/29 21:00:40;;;;;;;;;36.25;31.75;;;;;;;;8608702;41;10905;-63
2021/06/29 21:06:42;;;;;;;;;33.00;33.00;;;;;;;;8609151;41;10963;-64
2021/06/29 21:12:44;;;;;;;;;33.80;31.40;;;;;;;;7890660;41;10000975;-65
2021/06/29 21:18:52;;;;;;;;;37.00;33.00;;;;;;;;8608832;41;10993;-63
2021/06/29 21:24:59;;;;;;;;;37.75;30.00;;;;;;;;8586629;41;10937;-64
2021/06/29 21:31:06;;;;;;;;;31.50;25.00;;;;;;;;8586141;41;10856;-64
2021/06/29 21:37:16;;;;;;;;;34.00;30.75;;;;;;;;8600432;41;10987;-63
2021/06/29 21:43:22;;;;;;;;;33.75;31.00;;;;;;;;8584952;41;10720;-64
2021/06/29 21:49:29;;;;;;;;;31.75;27.00;;;;;;;;8584550;41;10983;-64
2021/06/29 21:55:37;;;;;;;;;33.50;27.00;;;;;;;;8584186;41;10910;-64
2021/06/29 22:01:44;;;;;;;;;28.50;28.00;;;;;;;;8585640;41;10916;-63
2021/06/29 22:07:51;;;;;;;;;27.50;24.25;;;;;;;;8587045;41;10835;-64
2021/06/29 22:13:57;;;;;;;;;20.75;19.50;;;;;;;;8608013;41;10683;-64
2021/06/29 22:19:59;;;;;;;;;28.00;26.25;;;;;;;;8606816;41;10751;-64
2021/06/29 22:26:19;;;;;;;;;29.25;26.00;;;;;;;;8606955;41;10765;-63
2021/06/29 22:32:27;;;;;;;;;24.00;23.25;;;;;;;;8607437;41;11330;-65
2021/06/29 22:38:34;;;;;;;;;31.50;25.50;;;;;;;;8607652;41;10753;-64
2021/06/29 22:44:41;;;;;;;;;27.75;25.25;;;;;;;;8607194;41;11037;-64
2021/06/29 22:50:49;;;;;;;;;29.50;27.25;;;;;;;;8604839;41;10764;-64
2021/06/29 22:56:56;;;;;;;;;37.75;35.25;;;;;;;;8584208;41;10951;-62
2021/06/29 23:03:03;;;;;;;;;33.25;28.00;;;;;;;;8583683;41;11085;-62
2021/06/29 23:09:10;;;;;;;;;34.00;31.50;;;;;;;;8584099;41;10977;-63
2021/06/29 23:15:16;;;;;;;;;35.75;29.75;;;;;;;;8583713;41;10858;-64
2021/06/29 23:21:23;;;;;;;;;37.50;31.75;;;;;;;;8583604;41;10880;-63
2021/06/29 23:27:30;;;;;;;;;34.50;31.75;;;;;;;;8582524;41;10972;-63
2021/06/29 23:33:37;;;;;;;;;35.75;32.00;;;;;;;;8584127;41;11042;-66
2021/06/29 23:39:51;;;;;;;;;34.00;32.50;;;;;;;;8588446;41;11017;-63
2021/06/29 23:45:58;;;;;;;;;31.00;30.50;;;;;;;;8582804;41;11002;-64
2021/06/29 23:52:05;;;;;;;;;39.50;38.50;;;;;;;;8582664;41;11070;-64
2021/06/29 23:58:13;;;;;;;;;35.75;31.25;;;;;;;;8584289;41;11394;-63
